Romulus, Michigan
Current Conditions -  °F | °C
As of 9:12 AM on Sunday 25 Jan 2015 (Local Time) from KDTW Reporting Station
Overcast Overcast  
Wind Chill: 14°   Ceiling: 3000
Heat Index: 25°   Visibility: 10mi
Dew Point: 18°   Wind: 12mph
Humidity: 74%   Direction: 20°NNE
Pressure: 29.87"   Gusts: 21mph
Location:  42.22°N, 83.38°W
Report Text: KDTW 251412Z 02010G18KT 10SM FEW018 OVC030 M04/M08 A2987 RMK AO2
Loading
Personal Weather Stations






























Interactive Weather Map New forecast layout! Learn more

10-Day Weather Forecast

Advertisements
Track Severe Weather on mobile